Latest Coastal Weather Observations for Ballina

IDN60701

Issued at 4:51 pm EST Sunday 28 May 2017 (issued every 10 minutes, with the page automatically refreshed every 10 minutes)

About coastal observations | Map of coastal stations | Coastal observations for NSW | Marine services | Other Formats
Station Details ID: 058198 Name: BALLINA AIRPORT AWS Lat: -28.84 Lon: 153.56 Height: 1.3 m
Data from the previous 72 hours. | See also: Recent months at Ballina
Date/Time
EST
Temp
°C
Wind Pressure Rain since
9am
mm
Weather Cloud Vis
km
Sea
Height
m
Swell
Dir  Spd
kts
Gust
kts
hPa Trend Height
m
Period
s
Dir
28/04:30pm 20.4 NE 1 4 1015.8 - 0.0 - Cloudy 10 - - - -
28/04:00pm 20.8 ENE 3 4 1015.9 - 0.0 - Partly cloudy 10 - - - -
28/03:30pm 21.5 E 5 7 1016.0 - 0.0 - Partly cloudy 10 - - - -
28/03:00pm 22.7 E 6 8 1016.0 - 0.0 - - 10 - - - -
28/02:30pm 22.8 ESE 2 5 1016.1 - 0.0 - Partly cloudy 10 - - - -
28/02:00pm 23.1 SE 1 4 1016.3 - 0.0 - Cloudy 10 - - - -
28/01:30pm 22.5 S 3 5 1016.6 - 0.0 - Cloudy 10 - - - -
28/01:00pm 21.2 SSE 4 4 1016.9 - 0.0 - Cloudy 10 - - - -
28/12:30pm 21.0 SSE 5 6 1017.2 - 0.0 - Cloudy 10 - - - -
28/12:00pm 21.4 S 5 7 1017.6 - 0.0 - Cloudy 10 - - - -
28/11:30am 22.5 E 3 6 1017.7 - 0.0 - - 10 - - - -
28/11:00am 22.6 WNW 1 3 1018.1 - 0.0 - - 10 - - - -
28/10:30am 21.7 CALM 0 3 1018.5 - 0.0 - - 10 - - - -
28/10:00am 21.3 ENE 1 3 1018.6 - 0.0 - Partly cloudy 10 - - - -
28/09:30am 19.3 CALM 0 0 1018.9 - 0.0 - Partly cloudy 10 - - - -
28/09:00am 17.9 CALM 0 0 1019.0 - 0.0 - - 10 - - - -
28/08:30am 16.9 CALM 0 0 1019.1 - 0.0 - - 10 - - - -
28/08:00am 15.1 CALM 0 0 1019.1 - 0.0 - - 10 - - - -
28/07:30am 13.3 CALM 0 0 1019.2 - 0.0 - - 10 - - - -
28/07:00am 11.3 NW 2 5 1018.8 - 0.0 - - 10 - - - -
28/06:55am 10.9 NNW 1 3 1018.7 - 0.0 - - 10 - - - -
28/06:37am 10.5 CALM 0 0 1018.6 - 0.0 - - 5 - - - -
28/06:30am 9.9 NE 2 4 1018.6 - 0.0 - - 10 - - - -
28/06:28am 10.0 NE 2 4 1018.6 - 0.0 - - 10 - - - -
28/06:11am 10.4 CALM 0 0 1018.6 - 0.0 - Partly cloudy 3 - - - -
28/06:00am 10.7 CALM 0 0 1018.7 - 0.0 - Partly cloudy 2 - - - -
28/05:30am 10.4 CALM 0 0 1018.6 - 0.0 - Partly cloudy 0.3 - - - -
28/05:28am 10.5 CALM 0 0 1018.6 - 0.0 - Partly cloudy 0.2 - - - -
28/05:00am 10.8 CALM 0 0 1018.5 - 0.0 - - 0.3 - - - -
28/04:30am 11.3 CALM 0 0 1018.3 - 0.0 - - 0.6 - - - -
28/04:00am 11.5 CALM 0 0 1018.3 - 0.0 - - 0.9 - - - -
28/03:30am 12.2 CALM 0 0 1018.5 - 0.0 - - 1 - - - -
28/03:00am 11.8 CALM 0 0 1018.7 - 0.0 - - 2 - - - -
28/02:30am 11.9 CALM 0 2 1018.8 - 0.0 - - 5 - - - -
28/02:24am 11.7 CALM 0 0 1018.9 - 0.0 - - 5 - - - -
28/02:12am 12.0 CALM 0 0 1019.2 - 0.0 - - 10 - - - -
28/02:00am 12.2 ENE 1 4 1019.3 - 0.0 - - 2 - - - -
28/01:30am 12.5 CALM 0 0 1019.5 - 0.0 - - 0.9 - - - -
28/01:00am 12.4 CALM 0 0 1019.9 - 0.0 - - 2 - - - -
28/12:30am 12.8 CALM 0 0 1019.9 - 0.0 - - 3 - - - -
28/12:26am 12.6 CALM 0 0 1019.9 - 0.0 - - 5 - - - -
28/12:07am 12.2 CALM 0 0 1020.0 - 0.0 - - 10 - - - -
28/12:00am 12.5 CALM 0 0 1020.0 - 0.0 - - 10 - - - -
 
Date/Time
EST
Temp
°C
Wind Pressure Rain since
9am
mm
Weather Cloud Vis
km
Sea
Height
m
Swell
Dir  Spd
kts
Gust
kts
hPa Trend Height
m
Period
s
Dir
27/11:49pm 12.8 CALM 0 0 1020.1 - 0.0 - - 4 - - - -
27/11:40pm 13.2 CALM 0 0 1020.2 - 0.0 - - 10 - - - -
27/11:30pm 13.2 CALM 0 0 1020.3 - 0.0 - - 4 - - - -
27/11:11pm 13.1 CALM 0 0 1020.4 - 0.0 - - 5 - - - -
27/11:00pm 13.7 CALM 0 0 1020.5 - 0.0 - - 10 - - - -
27/10:59pm 13.8 CALM 0 0 1020.5 - 0.0 - - 10 - - - -
27/10:30pm 13.5 CALM 0 0 1020.7 - 0.0 - - 0.6 - - - -
27/10:18pm 13.8 CALM 0 0 1020.7 - 0.0 - - 4 - - - -
27/10:00pm 15.1 N 3 4 1020.8 - 0.0 - - 10 - - - -
27/09:30pm 14.7 N 3 4 1020.9 - 0.0 - - 10 - - - -
27/09:00pm 14.7 CALM 0 0 1021.1 - 0.0 - - 10 - - - -
27/08:30pm 15.0 CALM 0 0 1021.1 - 0.0 - - 10 - - - -
27/08:00pm 15.4 N 2 3 1021.0 - 0.0 - - 10 - - - -
27/07:30pm 16.6 N 4 6 1020.8 - 0.0 - - 10 - - - -
27/07:00pm 17.0 N 5 7 1020.6 - 0.0 - - 10 - - - -
27/06:30pm 16.6 NNW 3 4 1020.5 - 0.0 - - 10 - - - -
27/06:00pm 17.1 CALM 0 0 1020.1 - 0.0 - - 10 - - - -
27/05:30pm 17.4 CALM 0 2 1019.8 - 0.0 - - 10 - - - -
27/05:00pm 18.4 NE 4 5 1019.8 - 0.0 - - 10 - - - -
27/04:30pm 20.1 ENE 5 7 1019.6 - 0.0 - - 10 - - - -
27/04:00pm 21.0 E 6 8 1019.8 - 0.0 - - 10 - - - -
27/03:30pm 21.1 ESE 6 8 1019.7 - 0.0 - - 10 - - - -
27/03:00pm 21.3 ESE 6 9 1019.7 - 0.0 - - 10 - - - -
27/02:30pm 21.7 ESE 6 9 1019.7 - 0.0 - - 10 - - - -
27/02:00pm 21.7 ESE 7 10 1019.9 - 0.0 - - 10 - - - -
27/01:30pm 21.5 ESE 6 8 1020.1 - 0.0 - - 10 - - - -
27/01:00pm 21.4 SSE 7 9 1020.5 - 0.0 - - 10 - - - -
27/12:30pm 21.4 SE 7 9 1020.8 - 0.0 - - 10 - - - -
27/12:00pm 21.2 SSE 5 7 1021.1 - 0.0 - - 10 - - - -
27/11:30am 21.1 SE 8 10 1021.6 - 0.0 - - 10 - - - -
27/11:00am 21.3 SSE 5 9 1022.2 - 0.0 - - 10 - - - -
27/10:30am 20.4 SSE 3 6 1022.7 - 0.0 - - 10 - - - -
27/10:00am 19.5 SW 4 7 1022.9 - 0.0 - - 10 - - - -
27/09:30am 18.7 SW 3 5 1022.9 - 0.0 - - 10 - - - -
27/09:00am 17.8 WSW 4 5 1022.9 - 1.6 - - 10 - - - -
27/08:30am 16.5 SW 4 6 1023.0 - 1.6 - - 10 - - - -
27/08:04am 15.8 W 3 7 1022.9 - 1.6 - - 10 - - - -
27/08:00am 15.6 W 1 5 1022.9 - 1.6 - - 10 - - - -
27/07:30am 14.2 W 2 4 1022.8 - 1.6 - - 0.8 - - - -
27/07:00am 12.3 WNW 3 4 1022.6 - 1.4 - - 0.1 - - - -
27/06:30am 11.6 SW 1 4 1022.4 - 1.4 - Partly cloudy 0.2 - - - -
27/06:00am 11.3 CALM 0 0 1022.1 - 1.4 - Partly cloudy 0.3 - - - -
27/05:30am 11.7 CALM 0 0 1021.8 - 1.4 - - 0.9 - - - -
27/05:00am 12.6 CALM 0 0 1021.4 - 1.4 - Partly cloudy 0.3 - - - -
27/04:30am 13.3 CALM 0 0 1021.4 - 1.4 - Partly cloudy 0.2 - - - -
27/04:14am 13.1 CALM 0 1 1021.3 - 1.4 - Partly cloudy 4 - - - -
27/04:00am 13.5 W 3 5 1021.3 - 1.4 - Partly cloudy 10 - - - -
27/03:54am 13.5 W 5 5 1021.3 - 1.4 - Partly cloudy 10 - - - -
27/03:30am 14.2 W 1 3 1021.2 - 1.4 - Partly cloudy 4 - - - -
27/03:28am 14.3 W 2 4 1021.2 - 1.4 - Partly cloudy 5 - - - -
27/03:00am 14.8 W 1 5 1021.1 - 1.4 - Mostly cloudy 10 - - - -
27/02:57am 14.8 CALM 0 4 1021.1 - 1.4 - Partly cloudy 10 - - - -
27/02:30am 14.5 CALM 0 0 1021.3 - 1.4 - Partly cloudy 0.6 - - - -
27/02:14am 14.9 CALM 0 0 1021.3 - 1.4 - Partly cloudy 5 - - - -
27/02:00am 15.6 N 2 5 1021.4 - 1.4 - Partly cloudy 10 - - - -
27/01:30am 16.2 CALM 0 2 1021.3 - 1.4 - Partly cloudy 10 - - - -
27/01:09am 16.6 NW 7 8 1021.5 - 1.4 - Partly cloudy 10 - - - -
27/01:00am 16.5 N 7 9 1021.7 - 1.4 - Partly cloudy 6 - - - -
27/12:47am 16.3 N 7 10 1021.7 - 0.6 - Partly cloudy 5 - - - -
27/12:30am 15.0 NNW 5 7 1021.7 - 0.0 - Partly cloudy 10 - - - -
27/12:00am 12.8 CALM 0 0 1021.5 - 0.0 - Mostly cloudy 10 - - - -
 
Date/Time
EST
Temp
°C
Wind Pressure Rain since
9am
mm
Weather Cloud Vis
km
Sea
Height
m
Swell
Dir  Spd
kts
Gust
kts
hPa Trend Height
m
Period
s
Dir
26/11:30pm 12.6 CALM 0 0 1021.6 - 0.0 - Partly cloudy 10 - - - -
26/11:00pm 13.0 CALM 0 0 1021.6 - 0.0 - - 8 - - - -
26/10:30pm 12.7 CALM 0 0 1021.5 - 0.0 - - 10 - - - -
26/10:07pm 13.2 CALM 0 0 1021.5 - 0.0 - - 10 - - - -
26/10:00pm 13.2 CALM 0 0 1021.5 - 0.0 - - 10 - - - -
26/09:30pm 13.1 CALM 0 0 1021.6 - 0.0 - - 2 - - - -
26/09:28pm 13.2 CALM 0 0 1021.6 - 0.0 - - 4 - - - -
26/09:00pm 13.4 CALM 0 0 1021.5 - 0.0 - - 10 - - - -
26/08:30pm 13.7 CALM 0 0 1021.4 - 0.0 - Partly cloudy 10 - - - -
26/08:00pm 13.8 CALM 0 0 1021.2 - 0.0 - - 10 - - - -
26/07:30pm 15.0 CALM 0 3 1020.9 - 0.0 - Partly cloudy 10 - - - -
26/07:00pm 14.6 CALM 0 0 1020.6 - 0.0 - - 10 - - - -
26/06:30pm 15.1 CALM 0 0 1020.3 - 0.0 - - 10 - - - -
26/06:00pm 15.8 CALM 0 0 1019.9 - 0.0 - - 10 - - - -
26/05:30pm 16.5 CALM 0 0 1019.7 - 0.0 - - 10 - - - -
26/05:00pm 18.4 NE 1 3 1019.6 - 0.0 - - 10 - - - -
26/04:30pm 19.6 ENE 5 6 1019.3 - 0.0 - - 10 - - - -
26/04:00pm 20.6 E 5 8 1019.1 - 0.0 - - 10 - - - -
26/03:30pm 21.1 E 7 9 1019.0 - 0.0 - - 10 - - - -
26/03:00pm 21.5 ENE 7 9 1019.1 - 0.0 - - 10 - - - -
26/02:30pm 21.4 ESE 5 7 1019.2 - 0.0 - - 10 - - - -
26/02:00pm 21.6 E 7 9 1019.3 - 0.0 - - 10 - - - -
26/01:30pm 21.9 SSE 7 9 1019.5 - 0.0 - - 10 - - - -
26/01:00pm 21.7 SE 8 11 1019.7 - 0.0 - - 10 - - - -
26/12:30pm 22.5 S 3 7 1020.1 - 0.0 - - 10 - - - -
26/12:00pm 22.3 SW 6 8 1020.5 - 0.0 - - 10 - - - -
26/11:30am 21.8 WSW 5 9 1021.2 - 0.0 - - 10 - - - -
26/11:00am 21.3 WSW 6 9 1021.7 - 0.0 - - 10 - - - -
26/10:30am 20.8 WSW 5 8 1021.7 - 0.0 - - 10 - - - -
26/10:00am 20.2 WNW 5 8 1021.9 - 0.0 - - 10 - - - -
26/09:30am 18.7 WSW 7 9 1021.9 - 0.0 - - 10 - - - -
26/09:00am 17.0 W 6 9 1021.8 - 0.2 - - 10 - - - -
26/08:30am 15.5 W 3 4 1021.7 - 0.2 - - 10 - - - -
26/08:00am 14.1 W 3 5 1021.5 - 0.2 - - 10 - - - -
26/07:30am 12.2 W 1 4 1021.3 - 0.2 - - 10 - - - -
26/07:07am 9.9 CALM 0 0 1021.0 - 0.2 - - 10 - - - -
26/07:00am 9.7 CALM 0 0 1021.0 - 0.2 - - 8 - - - -
26/06:45am 8.7 CALM 0 0 1021.0 - 0.2 - - 5 - - - -
26/06:30am 8.7 CALM 0 0 1020.8 - 0.2 - - 10 - - - -
26/06:27am 8.7 CALM 0 0 1020.7 - 0.2 - - 10 - - - -
26/06:00am 9.1 CALM 0 0 1020.5 - 0.0 - - 3 - - - -
26/05:30am 9.7 CALM 0 0 1020.0 - 0.0 - - 10 - - - -
26/05:00am 9.8 CALM 0 0 1020.0 - 0.0 - - 10 - - - -
26/04:30am 9.2 CALM 0 1 1019.8 - 0.0 - - 10 - - - -
26/04:03am 10.2 W 6 7 1019.9 - 0.0 - - 10 - - - -
26/04:00am 9.9 W 5 7 1019.9 - 0.0 - - 10 - - - -
26/03:30am 9.6 CALM 0 0 1020.0 - 0.0 - Partly cloudy 0.6 - - - -
26/03:00am 9.7 CALM 0 0 1020.1 - 0.0 - - 0.4 - - - -
26/02:50am 9.7 CALM 0 0 1020.2 - 0.0 - - 5 - - - -
26/02:30am 9.7 CALM 0 0 1020.3 - 0.0 - - 10 - - - -
26/02:01am 10.1 CALM 0 0 1020.4 - 0.0 - - 10 - - - -
26/02:00am 10.1 CALM 0 0 1020.4 - 0.0 - - 10 - - - -
26/01:30am 9.5 CALM 0 0 1020.4 - 0.0 - - 1 - - - -
26/01:00am 10.3 CALM 0 0 1020.4 - 0.0 - - 0.9 - - - -
26/12:30am 10.8 CALM 0 0 1020.6 - 0.0 - - 3 - - - -
26/12:00am 11.5 CALM 0 0 1020.8 - 0.0 - - 5 - - - -
 
Date/Time
EST
Temp
°C
Wind Pressure Rain since
9am
mm
Weather Cloud Vis
km
Sea
Height
m
Swell
Dir  Spd
kts
Gust
kts
hPa Trend Height
m
Period
s
Dir
25/11:51pm 10.8 CALM 0 0 1020.9 - 0.0 - - 4 - - - -
25/11:32pm 11.5 CALM 0 0 1020.9 - 0.0 - - 10 - - - -
25/11:30pm 11.7 CALM 0 0 1020.9 - 0.0 - - 10 - - - -
25/11:00pm 11.3 CALM 0 0 1021.1 - 0.0 - - 1 - - - -
25/10:35pm 11.7 CALM 0 0 1021.1 - 0.0 - - 3 - - - -
25/10:30pm 12.0 CALM 0 0 1021.1 - 0.0 - - 10 - - - -
25/10:00pm 12.7 CALM 0 0 1021.2 - 0.0 - - 10 - - - -
25/09:30pm 12.3 CALM 0 0 1021.1 - 0.0 - - 10 - - - -
25/09:00pm 13.6 W 3 4 1021.1 - 0.0 - - 10 - - - -
25/08:30pm 12.9 W 2 4 1021.1 - 0.0 - - 10 - - - -
25/08:00pm 13.9 CALM 0 3 1021.0 - 0.0 - - 10 - - - -
25/07:30pm 13.9 W 4 5 1020.8 - 0.0 - - 10 - - - -
25/07:00pm 14.4 W 4 5 1020.5 - 0.0 - - 10 - - - -
25/06:30pm 14.9 CALM 0 1 1020.3 - 0.0 - - 10 - - - -
25/06:00pm 16.3 S 6 7 1019.9 - 0.0 - - 10 - - - -
25/05:30pm 16.9 S 5 7 1019.6 - 0.0 - Partly cloudy 10 - - - -
25/05:00pm 18.1 S 5 7 1019.4 - 0.0 - Partly cloudy 10 - - - -

Other Formats:

Comma delimited format used in spreadsheet applications
http://www.bom.gov.au/fwo/IDN60701/IDN60701.94596.axf

JavaScript Object Notation format (JSON) in row-major order
http://www.bom.gov.au/fwo/IDN60701/IDN60701.94596.json